KASN

Details ICAO KASN
Name Talladega Muni
Region United States
Timezone America/Chicago (UTC-6.0)
Plans Departing 3
Arriving 8
Stats Elevation 528 ft / 161 m (AMSL)
Location 33.569920° -86.050852°
Runways 1
Magnetic Variation 3.962° W
Sunrise 2017-12-16 12:43:20 UTC / 2017-12-16 06:43:20 Local
Sunset 2017-12-16 22:39:20 UTC / 2017-12-16 16:39:20 Local
Advertisement - Login to hide

Runways

ID Width Length Bearing (true) Bearing (mag) Surface Threshold Offset Overrun Length
03 98 ft / 30 m 6,009 ft / 1,831 m 35.26° 39.22° Asphalt 0 ft / 0 m 0 ft / 0 m
21 98 ft / 30 m 6,009 ft / 1,831 m 215.26° 219.22° Asphalt 0 ft / 0 m 174 ft / 53 m

Map

Weather


0- 5 10 15 20 25 30 35+ Temperature / ° C

Clouds and Precipitation
Forecast for 2017-12-16 18:00 UTC. Updated 2 hours ago

Ground ~20,000 ft ~40,000 ft Winds

METAR

KASN 161455Z AUTO 00000KT 7SM CLR 00/M02 A3034 RMK AO2 T10051022

TAF

TAF KASN 161120Z 1612/1712 00000KT P6SM SCT250 FM161600 20004KT P6SM BKN250 FM170000 00000KT P6SM BKN250 FM170900 12003KT P6SM OVC100

Frequencies

Recorded 118.42 MHz AWOS 3
Approach 125.45 MHz BIRMINGHAM APP/DEP
Unicom 122.80 MHz CTAF/UNICOM
Warning: Do not use this data for real-world aviation or navigation. No guarantee of current accuracy is given.